Oliver Springs, TN (37840)

3:21 AM EDT on May 23, 2015 (GMT -0400)
Eyman Osage Rd | | Change Station
CLOSE
Current Station
Personal Weather Station
Location: Oak Ridge, TN
Elevation: 1109 ft
Nearby Weather Stations

Elev 1109 ft 36.03 °N, 84.26 °W | Updated 2 minutes ago

Clear
Clear
51.3 °F
Feels Like 51.3 °F
N
0.0
Wind Variable Wind from SW

Today
High -- | Low -- °F
--% Chance of Precip.
Yesterday
High -- | Low -- °F
Precip. -- in
6:26 AM 8:42 PM
Waxing Crescent, 27% visible
Pressure 30.30 in
Visibility 10.0 miles
Clouds Clear
Dew Point 48 °F
Humidity 90%
Rainfall 0.00 in
Snow Depth Not available.
UV 0 out of 12
Pollen 7.10 out of 12
Air Quality Not available.
Flu Activity Sporadic
METAR KOQT 230653Z AUTO 06003KT 10SM CLR 11/08 A3031 RMK AO2 SLP259 T01110083

More Conditions Fewer Conditions

Pressure 30.30 in
Visibility 10.0 miles
Clouds Clear
Dew Point 48 °F
Humidity 90%
Rainfall 0.00 in
Snow Depth Not available.
UV 0 out of 12
Pollen 7.10 out of 12
Air Quality Not available.
Flu Activity Sporadic
METAR KOQT 230653Z AUTO 06003KT 10SM CLR 11/08 A3031 RMK AO2 SLP259 T01110083

More Conditions Fewer Conditions

10-Day Weather Forecast

Almanac

Astronomy

May. 23, 2015 Rise Set
Actual Time
Civil Twilight
Nautical Twilight
Astronomical Twilight
Moon
Length of Visible Light
Length of Day
Tomorrow will be .
, % of the Moon is Illuminated

Today's Extremes

State Highs State Lows

Community

WunderPhotos

Upload Photos

1,823,394 photos uploaded!

WunderBlogs® & News

Nearby

Air Quality

  Air Quality AQ Index Pollutant
Not available.

Snow Depth

Station Depth Elevation

Earthquake Activity

City Distance Mag. Time & Date
Minimum magnitude displayed is 2.5.

Coastal Water Temperatures

Place Temperature

Stations

Nearby Weather Stations

Station Location Temp. Windchill Dew Point Humidity Wind Precip. Elev Updated Type